sensor_id;sensor_type;location;lat;lon;timestamp;P1;durP1;ratioP1;P2;durP2;ratioP2
79064;SDS011;68469;51.502;7.462;2023-09-19T00:00:41;6.45;;;2.92;;
79064;SDS011;68469;51.502;7.462;2023-09-19T00:03:08;7.57;;;2.30;;
79064;SDS011;68469;51.502;7.462;2023-09-19T00:05:34;7.47;;;2.53;;
79064;SDS011;68469;51.502;7.462;2023-09-19T00:08:00;6.32;;;2.50;;
79064;SDS011;68469;51.502;7.462;2023-09-19T00:10:29;10.75;;;3.08;;
79064;SDS011;68469;51.502;7.462;2023-09-19T00:12:56;6.65;;;2.95;;
79064;SDS011;68469;51.502;7.462;2023-09-19T00:15:25;7.03;;;2.72;;
79064;SDS011;68469;51.502;7.462;2023-09-19T00:17:54;6.38;;;2.47;;
79064;SDS011;68469;51.502;7.462;2023-09-19T00:20:20;8.65;;;2.50;;
79064;SDS011;68469;51.502;7.462;2023-09-19T00:22:48;6.45;;;2.13;;
79064;SDS011;68469;51.502;7.462;2023-09-19T00:25:18;7.03;;;2.70;;
79064;SDS011;68469;51.502;7.462;2023-09-19T00:27:45;8.43;;;3.00;;
79064;SDS011;68469;51.502;7.462;2023-09-19T00:30:16;11.05;;;2.80;;
79064;SDS011;68469;51.502;7.462;2023-09-19T00:32:46;12.55;;;2.67;;
79064;SDS011;68469;51.502;7.462;2023-09-19T00:35:13;6.20;;;2.55;;
79064;SDS011;68469;51.502;7.462;2023-09-19T00:37:40;8.00;;;3.00;;
79064;SDS011;68469;51.502;7.462;2023-09-19T00:40:06;8.30;;;2.33;;
79064;SDS011;68469;51.502;7.462;2023-09-19T00:42:37;10.75;;;3.03;;
79064;SDS011;68469;51.502;7.462;2023-09-19T00:45:04;10.18;;;2.60;;
79064;SDS011;68469;51.502;7.462;2023-09-19T00:47:30;9.43;;;2.88;;
79064;SDS011;68469;51.502;7.462;2023-09-19T00:49:56;8.02;;;2.38;;
79064;SDS011;68469;51.502;7.462;2023-09-19T00:52:23;7.40;;;2.58;;
79064;SDS011;68469;51.502;7.462;2023-09-19T00:54:49;9.13;;;2.65;;
79064;SDS011;68469;51.502;7.462;2023-09-19T00:57:15;8.45;;;3.10;;
79064;SDS011;68469;51.502;7.462;2023-09-19T00:59:42;7.30;;;2.33;;
79064;SDS011;68469;51.502;7.462;2023-09-19T01:02:08;7.80;;;2.50;;
79064;SDS011;68469;51.502;7.462;2023-09-19T01:04:34;8.23;;;2.40;;
79064;SDS011;68469;51.502;7.462;2023-09-19T01:07:00;9.98;;;2.28;;
79064;SDS011;68469;51.502;7.462;2023-09-19T01:09:25;7.60;;;2.35;;
79064;SDS011;68469;51.502;7.462;2023-09-19T01:11:52;12.15;;;2.92;;
79064;SDS011;68469;51.502;7.462;2023-09-19T01:17:20;8.43;;;2.85;;
79064;SDS011;68469;51.502;7.462;2023-09-19T01:20:15;11.95;;;2.28;;
79064;SDS011;68469;51.502;7.462;2023-09-19T01:25:50;9.15;;;3.00;;
79064;SDS011;68469;51.502;7.462;2023-09-19T01:31:01;10.65;;;2.83;;
79064;SDS011;68469;51.502;7.462;2023-09-19T01:33:28;10.02;;;2.65;;
79064;SDS011;68469;51.502;7.462;2023-09-19T01:36:13;12.23;;;2.65;;
79064;SDS011;68469;51.502;7.462;2023-09-19T01:38:40;9.00;;;2.38;;
79064;SDS011;68469;51.502;7.462;2023-09-19T01:41:07;9.82;;;2.50;;
79064;SDS011;68469;51.502;7.462;2023-09-19T01:43:46;8.73;;;3.15;;
79064;SDS011;68469;51.502;7.462;2023-09-19T01:46:15;9.20;;;3.05;;
79064;SDS011;68469;51.502;7.462;2023-09-19T01:54:32;11.65;;;2.83;;
79064;SDS011;68469;51.502;7.462;2023-09-19T01:57:08;11.95;;;2.55;;
79064;SDS011;68469;51.502;7.462;2023-09-19T01:59:50;7.50;;;2.25;;
79064;SDS011;68469;51.502;7.462;2023-09-19T02:02:21;11.57;;;2.92;;
79064;SDS011;68469;51.502;7.462;2023-09-19T02:04:50;9.77;;;2.28;;
79064;SDS011;68469;51.502;7.462;2023-09-19T02:07:16;12.23;;;2.58;;
79064;SDS011;68469;51.502;7.462;2023-09-19T02:09:42;10.68;;;2.80;;
79064;SDS011;68469;51.502;7.462;2023-09-19T02:12:08;7.32;;;2.53;;
79064;SDS011;68469;51.502;7.462;2023-09-19T02:14:34;15.45;;;3.08;;
79064;SDS011;68469;51.502;7.462;2023-09-19T02:17:04;14.80;;;3.88;;
79064;SDS011;68469;51.502;7.462;2023-09-19T02:22:00;5.43;;;2.17;;
79064;SDS011;68469;51.502;7.462;2023-09-19T02:24:28;9.32;;;2.25;;
79064;SDS011;68469;51.502;7.462;2023-09-19T02:26:53;12.15;;;3.78;;
79064;SDS011;68469;51.502;7.462;2023-09-19T02:29:20;7.20;;;2.10;;
79064;SDS011;68469;51.502;7.462;2023-09-19T02:31:47;9.55;;;2.88;;
79064;SDS011;68469;51.502;7.462;2023-09-19T02:34:12;10.02;;;2.78;;
79064;SDS011;68469;51.502;7.462;2023-09-19T02:36:38;9.05;;;2.78;;
79064;SDS011;68469;51.502;7.462;2023-09-19T02:39:04;7.03;;;2.08;;
79064;SDS011;68469;51.502;7.462;2023-09-19T02:41:31;9.00;;;2.53;;
79064;SDS011;68469;51.502;7.462;2023-09-19T02:43:58;7.72;;;2.53;;
79064;SDS011;68469;51.502;7.462;2023-09-19T02:46:24;10.93;;;3.28;;
79064;SDS011;68469;51.502;7.462;2023-09-19T02:48:49;10.55;;;2.45;;
79064;SDS011;68469;51.502;7.462;2023-09-19T02:51:15;9.70;;;2.60;;
79064;SDS011;68469;51.502;7.462;2023-09-19T02:53:41;8.23;;;2.88;;
79064;SDS011;68469;51.502;7.462;2023-09-19T02:56:07;12.60;;;2.90;;
79064;SDS011;68469;51.502;7.462;2023-09-19T02:58:34;10.00;;;2.70;;
79064;SDS011;68469;51.502;7.462;2023-09-19T03:01:07;11.55;;;2.97;;
79064;SDS011;68469;51.502;7.462;2023-09-19T03:03:39;11.77;;;2.78;;
79064;SDS011;68469;51.502;7.462;2023-09-19T03:06:06;11.18;;;2.55;;
79064;SDS011;68469;51.502;7.462;2023-09-19T03:08:34;12.65;;;2.70;;
79064;SDS011;68469;51.502;7.462;2023-09-19T03:11:02;12.77;;;3.10;;
79064;SDS011;68469;51.502;7.462;2023-09-19T03:13:28;8.48;;;2.38;;
79064;SDS011;68469;51.502;7.462;2023-09-19T03:15:56;8.68;;;2.40;;
79064;SDS011;68469;51.502;7.462;2023-09-19T03:18:23;7.30;;;2.42;;
79064;SDS011;68469;51.502;7.462;2023-09-19T03:20:54;9.77;;;2.42;;
79064;SDS011;68469;51.502;7.462;2023-09-19T03:23:20;8.93;;;2.45;;
79064;SDS011;68469;51.502;7.462;2023-09-19T03:25:46;9.40;;;2.33;;
79064;SDS011;68469;51.502;7.462;2023-09-19T03:28:12;10.38;;;2.65;;
79064;SDS011;68469;51.502;7.462;2023-09-19T03:30:40;7.47;;;2.60;;
79064;SDS011;68469;51.502;7.462;2023-09-19T03:33:06;8.75;;;2.55;;
79064;SDS011;68469;51.502;7.462;2023-09-19T03:35:31;11.55;;;3.03;;
79064;SDS011;68469;51.502;7.462;2023-09-19T03:37:57;10.60;;;2.80;;
79064;SDS011;68469;51.502;7.462;2023-09-19T03:40:23;8.88;;;2.75;;
79064;SDS011;68469;51.502;7.462;2023-09-19T03:42:50;6.93;;;2.17;;
79064;SDS011;68469;51.502;7.462;2023-09-19T03:45:15;9.75;;;2.88;;
79064;SDS011;68469;51.502;7.462;2023-09-19T03:47:43;9.18;;;2.83;;
79064;SDS011;68469;51.502;7.462;2023-09-19T03:50:09;13.25;;;3.55;;
79064;SDS011;68469;51.502;7.462;2023-09-19T03:52:40;9.90;;;2.67;;
79064;SDS011;68469;51.502;7.462;2023-09-19T03:55:06;9.38;;;2.58;;
79064;SDS011;68469;51.502;7.462;2023-09-19T03:57:32;8.80;;;2.63;;
79064;SDS011;68469;51.502;7.462;2023-09-19T03:59:57;8.95;;;2.70;;
79064;SDS011;68469;51.502;7.462;2023-09-19T04:02:23;18.23;;;2.85;;
79064;SDS011;68469;51.502;7.462;2023-09-19T04:04:49;7.30;;;2.38;;
79064;SDS011;68469;51.502;7.462;2023-09-19T04:07:15;11.18;;;3.20;;
79064;SDS011;68469;51.502;7.462;2023-09-19T04:09:41;8.80;;;2.38;;
79064;SDS011;68469;51.502;7.462;2023-09-19T04:12:07;11.13;;;3.00;;
79064;SDS011;68469;51.502;7.462;2023-09-19T04:14:36;13.32;;;2.97;;
79064;SDS011;68469;51.502;7.462;2023-09-19T04:17:02;14.02;;;3.35;;
79064;SDS011;68469;51.502;7.462;2023-09-19T04:19:30;10.07;;;3.00;;
79064;SDS011;68469;51.502;7.462;2023-09-19T04:21:55;11.02;;;2.63;;
79064;SDS011;68469;51.502;7.462;2023-09-19T04:24:21;8.57;;;2.67;;
79064;SDS011;68469;51.502;7.462;2023-09-19T04:26:47;10.02;;;2.65;;
79064;SDS011;68469;51.502;7.462;2023-09-19T04:29:13;9.63;;;2.55;;
79064;SDS011;68469;51.502;7.462;2023-09-19T04:31:38;9.13;;;3.03;;
79064;SDS011;68469;51.502;7.462;2023-09-19T04:34:05;10.60;;;2.80;;
79064;SDS011;68469;51.502;7.462;2023-09-19T04:36:31;11.05;;;3.30;;
79064;SDS011;68469;51.502;7.462;2023-09-19T04:38:56;12.02;;;2.83;;
79064;SDS011;68469;51.502;7.462;2023-09-19T04:41:22;10.13;;;2.40;;
79064;SDS011;68469;51.502;7.462;2023-09-19T04:43:49;8.35;;;2.55;;
79064;SDS011;68469;51.502;7.462;2023-09-19T04:46:15;12.50;;;3.15;;
79064;SDS011;68469;51.502;7.462;2023-09-19T04:48:42;8.95;;;2.55;;
79064;SDS011;68469;51.502;7.462;2023-09-19T04:51:08;11.43;;;2.70;;
79064;SDS011;68469;51.502;7.462;2023-09-19T04:53:33;11.18;;;3.00;;
79064;SDS011;68469;51.502;7.462;2023-09-19T04:55:59;6.65;;;2.58;;
79064;SDS011;68469;51.502;7.462;2023-09-19T04:58:24;10.95;;;2.75;;
79064;SDS011;68469;51.502;7.462;2023-09-19T05:00:50;13.73;;;2.75;;
79064;SDS011;68469;51.502;7.462;2023-09-19T05:03:16;12.32;;;2.30;;
79064;SDS011;68469;51.502;7.462;2023-09-19T05:05:42;13.05;;;2.53;;
79064;SDS011;68469;51.502;7.462;2023-09-19T05:08:08;12.30;;;3.38;;
79064;SDS011;68469;51.502;7.462;2023-09-19T05:10:35;9.20;;;2.63;;
79064;SDS011;68469;51.502;7.462;2023-09-19T05:13:06;10.10;;;2.53;;
79064;SDS011;68469;51.502;7.462;2023-09-19T05:15:35;15.30;;;2.88;;
79064;SDS011;68469;51.502;7.462;2023-09-19T05:18:01;10.80;;;2.35;;
79064;SDS011;68469;51.502;7.462;2023-09-19T05:20:28;8.18;;;2.45;;
79064;SDS011;68469;51.502;7.462;2023-09-19T05:25:31;9.55;;;2.78;;
79064;SDS011;68469;51.502;7.462;2023-09-19T05:27:57;22.73;;;3.17;;
79064;SDS011;68469;51.502;7.462;2023-09-19T05:30:27;11.43;;;2.60;;
79064;SDS011;68469;51.502;7.462;2023-09-19T05:32:54;9.95;;;3.13;;
79064;SDS011;68469;51.502;7.462;2023-09-19T05:35:20;11.18;;;2.80;;
79064;SDS011;68469;51.502;7.462;2023-09-19T05:37:47;8.95;;;2.65;;
79064;SDS011;68469;51.502;7.462;2023-09-19T05:40:15;9.70;;;3.15;;
79064;SDS011;68469;51.502;7.462;2023-09-19T05:42:44;11.48;;;2.58;;
79064;SDS011;68469;51.502;7.462;2023-09-19T05:45:10;9.00;;;3.17;;
79064;SDS011;68469;51.502;7.462;2023-09-19T05:47:39;13.05;;;3.50;;
79064;SDS011;68469;51.502;7.462;2023-09-19T05:50:08;10.48;;;2.60;;
79064;SDS011;68469;51.502;7.462;2023-09-19T05:52:34;8.95;;;2.42;;
79064;SDS011;68469;51.502;7.462;2023-09-19T05:55:02;9.43;;;2.75;;
79064;SDS011;68469;51.502;7.462;2023-09-19T05:57:32;7.78;;;3.47;;
79064;SDS011;68469;51.502;7.462;2023-09-19T05:59:58;13.95;;;3.65;;
79064;SDS011;68469;51.502;7.462;2023-09-19T06:02:24;6.97;;;2.65;;
79064;SDS011;68469;51.502;7.462;2023-09-19T06:04:53;10.65;;;3.00;;
79064;SDS011;68469;51.502;7.462;2023-09-19T06:07:20;10.13;;;3.28;;
79064;SDS011;68469;51.502;7.462;2023-09-19T06:09:47;10.38;;;2.30;;
79064;SDS011;68469;51.502;7.462;2023-09-19T06:12:12;8.18;;;2.55;;
79064;SDS011;68469;51.502;7.462;2023-09-19T06:14:42;11.45;;;2.85;;
79064;SDS011;68469;51.502;7.462;2023-09-19T06:17:08;9.68;;;3.22;;
79064;SDS011;68469;51.502;7.462;2023-09-19T06:19:34;11.80;;;3.28;;
79064;SDS011;68469;51.502;7.462;2023-09-19T06:21:59;7.78;;;2.80;;
79064;SDS011;68469;51.502;7.462;2023-09-19T06:24:25;9.90;;;2.58;;
79064;SDS011;68469;51.502;7.462;2023-09-19T06:26:51;12.70;;;2.83;;
79064;SDS011;68469;51.502;7.462;2023-09-19T06:29:17;7.95;;;2.60;;
79064;SDS011;68469;51.502;7.462;2023-09-19T06:31:45;11.52;;;2.83;;
79064;SDS011;68469;51.502;7.462;2023-09-19T06:34:12;9.65;;;3.03;;
79064;SDS011;68469;51.502;7.462;2023-09-19T06:36:40;10.65;;;3.05;;
79064;SDS011;68469;51.502;7.462;2023-09-19T06:39:06;8.27;;;3.08;;
79064;SDS011;68469;51.502;7.462;2023-09-19T06:41:34;10.65;;;3.28;;
79064;SDS011;68469;51.502;7.462;2023-09-19T06:43:59;9.65;;;2.70;;
79064;SDS011;68469;51.502;7.462;2023-09-19T06:46:26;12.23;;;3.13;;
79064;SDS011;68469;51.502;7.462;2023-09-19T06:48:57;7.22;;;2.50;;
79064;SDS011;68469;51.502;7.462;2023-09-19T06:51:23;9.70;;;2.55;;
79064;SDS011;68469;51.502;7.462;2023-09-19T06:53:48;9.68;;;2.70;;
79064;SDS011;68469;51.502;7.462;2023-09-19T06:56:14;11.80;;;2.70;;
79064;SDS011;68469;51.502;7.462;2023-09-19T06:58:40;9.90;;;2.90;;
79064;SDS011;68469;51.502;7.462;2023-09-19T07:01:08;12.15;;;2.88;;
79064;SDS011;68469;51.502;7.462;2023-09-19T07:03:34;13.80;;;3.00;;
79064;SDS011;68469;51.502;7.462;2023-09-19T07:05:59;6.65;;;2.10;;
79064;SDS011;68469;51.502;7.462;2023-09-19T07:08:25;9.27;;;2.95;;
79064;SDS011;68469;51.502;7.462;2023-09-19T07:10:50;11.15;;;3.38;;
79064;SDS011;68469;51.502;7.462;2023-09-19T07:13:19;10.50;;;2.97;;
79064;SDS011;68469;51.502;7.462;2023-09-19T07:15:44;12.52;;;2.97;;
79064;SDS011;68469;51.502;7.462;2023-09-19T07:18:15;15.25;;;2.90;;
79064;SDS011;68469;51.502;7.462;2023-09-19T07:20:45;9.57;;;2.90;;
79064;SDS011;68469;51.502;7.462;2023-09-19T07:23:15;8.65;;;2.67;;
79064;SDS011;68469;51.502;7.462;2023-09-19T07:25:46;13.30;;;2.95;;
79064;SDS011;68469;51.502;7.462;2023-09-19T07:28:13;9.40;;;2.70;;
79064;SDS011;68469;51.502;7.462;2023-09-19T07:30:39;9.07;;;3.00;;
79064;SDS011;68469;51.502;7.462;2023-09-19T07:33:06;13.00;;;3.63;;
79064;SDS011;68469;51.502;7.462;2023-09-19T07:35:32;11.10;;;2.70;;
79064;SDS011;68469;51.502;7.462;2023-09-19T07:37:58;13.05;;;3.50;;
79064;SDS011;68469;51.502;7.462;2023-09-19T07:40:26;12.02;;;2.80;;
79064;SDS011;68469;51.502;7.462;2023-09-19T07:42:54;13.20;;;3.33;;
79064;SDS011;68469;51.502;7.462;2023-09-19T07:45:26;10.35;;;2.83;;
79064;SDS011;68469;51.502;7.462;2023-09-19T07:47:52;11.10;;;3.10;;
79064;SDS011;68469;51.502;7.462;2023-09-19T07:50:18;10.88;;;2.95;;
79064;SDS011;68469;51.502;7.462;2023-09-19T07:52:45;11.52;;;2.85;;
79064;SDS011;68469;51.502;7.462;2023-09-19T07:55:11;16.85;;;3.50;;
79064;SDS011;68469;51.502;7.462;2023-09-19T07:57:42;9.85;;;2.63;;
79064;SDS011;68469;51.502;7.462;2023-09-19T08:00:08;11.07;;;3.65;;
79064;SDS011;68469;51.502;7.462;2023-09-19T08:02:38;14.60;;;2.78;;
79064;SDS011;68469;51.502;7.462;2023-09-19T08:05:05;10.38;;;2.67;;
79064;SDS011;68469;51.502;7.462;2023-09-19T08:07:32;9.95;;;2.47;;
79064;SDS011;68469;51.502;7.462;2023-09-19T08:09:58;10.75;;;3.20;;
79064;SDS011;68469;51.502;7.462;2023-09-19T08:12:23;16.52;;;2.97;;
79064;SDS011;68469;51.502;7.462;2023-09-19T08:14:50;10.85;;;3.40;;
79064;SDS011;68469;51.502;7.462;2023-09-19T08:17:15;17.83;;;3.78;;
79064;SDS011;68469;51.502;7.462;2023-09-19T08:19:41;11.50;;;2.97;;
79064;SDS011;68469;51.502;7.462;2023-09-19T08:22:10;11.57;;;3.15;;
79064;SDS011;68469;51.502;7.462;2023-09-19T08:24:35;11.50;;;2.90;;
79064;SDS011;68469;51.502;7.462;2023-09-19T08:27:02;12.07;;;2.83;;
79064;SDS011;68469;51.502;7.462;2023-09-19T08:29:30;10.95;;;3.08;;
79064;SDS011;68469;51.502;7.462;2023-09-19T08:31:57;11.25;;;2.88;;
79064;SDS011;68469;51.502;7.462;2023-09-19T08:34:25;13.43;;;3.08;;
79064;SDS011;68469;51.502;7.462;2023-09-19T08:36:51;10.95;;;2.70;;
79064;SDS011;68469;51.502;7.462;2023-09-19T08:39:21;8.20;;;2.45;;
79064;SDS011;68469;51.502;7.462;2023-09-19T08:41:56;11.00;;;3.17;;
79064;SDS011;68469;51.502;7.462;2023-09-19T08:44:26;10.38;;;2.75;;
79064;SDS011;68469;51.502;7.462;2023-09-19T08:46:58;12.35;;;2.88;;
79064;SDS011;68469;51.502;7.462;2023-09-19T08:49:38;12.88;;;3.42;;
79064;SDS011;68469;51.502;7.462;2023-09-19T08:52:22;10.82;;;2.88;;
79064;SDS011;68469;51.502;7.462;2023-09-19T08:54:52;12.02;;;3.83;;
79064;SDS011;68469;51.502;7.462;2023-09-19T08:57:23;12.75;;;3.17;;
79064;SDS011;68469;51.502;7.462;2023-09-19T08:59:54;11.55;;;2.55;;
79064;SDS011;68469;51.502;7.462;2023-09-19T09:02:20;10.75;;;2.65;;
79064;SDS011;68469;51.502;7.462;2023-09-19T09:04:48;13.15;;;2.90;;
79064;SDS011;68469;51.502;7.462;2023-09-19T09:07:15;7.18;;;2.75;;
79064;SDS011;68469;51.502;7.462;2023-09-19T09:09:44;8.80;;;2.58;;
79064;SDS011;68469;51.502;7.462;2023-09-19T09:12:13;12.13;;;2.63;;
79064;SDS011;68469;51.502;7.462;2023-09-19T09:14:40;14.27;;;3.55;;
79064;SDS011;68469;51.502;7.462;2023-09-19T09:17:10;9.45;;;2.83;;
79064;SDS011;68469;51.502;7.462;2023-09-19T09:19:37;10.07;;;2.78;;
79064;SDS011;68469;51.502;7.462;2023-09-19T09:22:09;9.50;;;2.70;;
79064;SDS011;68469;51.502;7.462;2023-09-19T09:24:35;10.60;;;2.70;;
79064;SDS011;68469;51.502;7.462;2023-09-19T09:27:04;10.18;;;2.80;;
79064;SDS011;68469;51.502;7.462;2023-09-19T09:29:46;10.05;;;2.60;;
79064;SDS011;68469;51.502;7.462;2023-09-19T09:34:59;8.20;;;2.47;;
79064;SDS011;68469;51.502;7.462;2023-09-19T09:37:26;8.30;;;2.70;;
79064;SDS011;68469;51.502;7.462;2023-09-19T09:42:43;8.38;;;1.98;;
79064;SDS011;68469;51.502;7.462;2023-09-19T09:45:12;9.10;;;2.35;;
79064;SDS011;68469;51.502;7.462;2023-09-19T09:47:42;8.65;;;3.15;;
79064;SDS011;68469;51.502;7.462;2023-09-19T09:50:24;9.88;;;2.85;;
79064;SDS011;68469;51.502;7.462;2023-09-19T09:52:54;8.98;;;3.03;;
79064;SDS011;68469;51.502;7.462;2023-09-19T09:55:36;5.95;;;2.13;;
79064;SDS011;68469;51.502;7.462;2023-09-19T09:58:37;10.13;;;2.60;;
79064;SDS011;68469;51.502;7.462;2023-09-19T10:01:13;11.98;;;3.05;;
79064;SDS011;68469;51.502;7.462;2023-09-19T10:03:43;10.68;;;2.42;;
79064;SDS011;68469;51.502;7.462;2023-09-19T10:06:14;8.63;;;1.98;;
79064;SDS011;68469;51.502;7.462;2023-09-19T10:11:42;10.13;;;2.03;;
79064;SDS011;68469;51.502;7.462;2023-09-19T10:14:11;8.88;;;2.58;;
79064;SDS011;68469;51.502;7.462;2023-09-19T10:16:45;8.02;;;2.42;;
79064;SDS011;68469;51.502;7.462;2023-09-19T10:19:15;8.65;;;1.98;;
79064;SDS011;68469;51.502;7.462;2023-09-19T10:24:22;7.75;;;2.42;;
79064;SDS011;68469;51.502;7.462;2023-09-19T10:26:50;9.57;;;2.65;;
79064;SDS011;68469;51.502;7.462;2023-09-19T10:29:16;7.30;;;2.53;;
79064;SDS011;68469;51.502;7.462;2023-09-19T10:31:44;9.20;;;2.38;;
79064;SDS011;68469;51.502;7.462;2023-09-19T10:34:16;9.93;;;2.80;;
79064;SDS011;68469;51.502;7.462;2023-09-19T10:36:45;9.23;;;2.45;;
79064;SDS011;68469;51.502;7.462;2023-09-19T10:39:15;9.00;;;2.53;;
79064;SDS011;68469;51.502;7.462;2023-09-19T10:41:47;8.30;;;2.15;;
79064;SDS011;68469;51.502;7.462;2023-09-19T10:44:25;7.13;;;2.45;;
79064;SDS011;68469;51.502;7.462;2023-09-19T10:46:51;7.30;;;2.45;;
79064;SDS011;68469;51.502;7.462;2023-09-19T10:49:19;8.95;;;2.22;;
79064;SDS011;68469;51.502;7.462;2023-09-19T10:51:50;7.45;;;2.33;;
79064;SDS011;68469;51.502;7.462;2023-09-19T10:54:23;7.57;;;2.20;;
79064;SDS011;68469;51.502;7.462;2023-09-19T10:56:52;11.02;;;2.38;;
79064;SDS011;68469;51.502;7.462;2023-09-19T10:59:19;6.22;;;2.53;;
79064;SDS011;68469;51.502;7.462;2023-09-19T11:04:27;11.88;;;2.28;;
79064;SDS011;68469;51.502;7.462;2023-09-19T11:09:52;7.05;;;3.00;;
79064;SDS011;68469;51.502;7.462;2023-09-19T11:15:06;10.65;;;2.20;;
79064;SDS011;68469;51.502;7.462;2023-09-19T11:23:23;7.65;;;2.28;;
79064;SDS011;68469;51.502;7.462;2023-09-19T11:30:39;6.75;;;2.30;;
79064;SDS011;68469;51.502;7.462;2023-09-19T11:36:07;10.23;;;2.35;;
79064;SDS011;68469;51.502;7.462;2023-09-19T11:46:16;5.82;;;2.17;;
79064;SDS011;68469;51.502;7.462;2023-09-19T11:48:49;9.18;;;2.15;;
79064;SDS011;68469;51.502;7.462;2023-09-19T11:51:19;4.72;;;1.83;;
79064;SDS011;68469;51.502;7.462;2023-09-19T11:54:01;5.97;;;2.10;;
79064;SDS011;68469;51.502;7.462;2023-09-19T11:56:28;6.38;;;2.17;;
79064;SDS011;68469;51.502;7.462;2023-09-19T11:58:56;7.95;;;1.98;;
79064;SDS011;68469;51.502;7.462;2023-09-19T12:01:31;4.78;;;1.98;;
79064;SDS011;68469;51.502;7.462;2023-09-19T12:04:00;10.57;;;2.28;;
79064;SDS011;68469;51.502;7.462;2023-09-19T12:06:29;7.05;;;1.70;;
79064;SDS011;68469;51.502;7.462;2023-09-19T12:08:57;8.63;;;1.90;;
79064;SDS011;68469;51.502;7.462;2023-09-19T12:11:29;7.15;;;1.98;;
79064;SDS011;68469;51.502;7.462;2023-09-19T12:13:59;8.18;;;2.13;;
79064;SDS011;68469;51.502;7.462;2023-09-19T12:16:26;5.97;;;1.88;;
79064;SDS011;68469;51.502;7.462;2023-09-19T12:18:55;8.32;;;2.33;;
79064;SDS011;68469;51.502;7.462;2023-09-19T12:26:27;9.52;;;2.03;;
79064;SDS011;68469;51.502;7.462;2023-09-19T12:28:54;9.23;;;2.00;;
79064;SDS011;68469;51.502;7.462;2023-09-19T12:31:21;6.07;;;2.20;;
79064;SDS011;68469;51.502;7.462;2023-09-19T12:33:52;6.10;;;2.10;;
79064;SDS011;68469;51.502;7.462;2023-09-19T12:36:19;7.40;;;2.42;;
79064;SDS011;68469;51.502;7.462;2023-09-19T12:38:53;7.95;;;2.30;;
79064;SDS011;68469;51.502;7.462;2023-09-19T12:41:20;7.38;;;2.15;;
79064;SDS011;68469;51.502;7.462;2023-09-19T12:43:47;5.60;;;2.30;;
79064;SDS011;68469;51.502;7.462;2023-09-19T12:46:13;7.07;;;2.20;;
79064;SDS011;68469;51.502;7.462;2023-09-19T12:48:40;6.95;;;2.40;;
79064;SDS011;68469;51.502;7.462;2023-09-19T12:51:09;9.77;;;2.05;;
79064;SDS011;68469;51.502;7.462;2023-09-19T12:53:38;6.13;;;2.22;;
79064;SDS011;68469;51.502;7.462;2023-09-19T12:56:09;8.68;;;2.25;;
79064;SDS011;68469;51.502;7.462;2023-09-19T13:01:28;9.27;;;2.00;;
79064;SDS011;68469;51.502;7.462;2023-09-19T13:04:10;5.22;;;1.83;;
79064;SDS011;68469;51.502;7.462;2023-09-19T13:06:51;5.70;;;1.73;;
79064;SDS011;68469;51.502;7.462;2023-09-19T13:09:18;6.68;;;2.28;;
79064;SDS011;68469;51.502;7.462;2023-09-19T13:11:45;4.90;;;2.00;;
79064;SDS011;68469;51.502;7.462;2023-09-19T13:14:17;7.38;;;2.22;;
79064;SDS011;68469;51.502;7.462;2023-09-19T13:19:44;6.38;;;1.80;;
79064;SDS011;68469;51.502;7.462;2023-09-19T13:27:45;4.40;;;1.75;;
79064;SDS011;68469;51.502;7.462;2023-09-19T13:30:13;6.20;;;2.13;;
79064;SDS011;68469;51.502;7.462;2023-09-19T13:32:39;5.32;;;2.15;;
79064;SDS011;68469;51.502;7.462;2023-09-19T13:35:06;5.15;;;1.80;;
79064;SDS011;68469;51.502;7.462;2023-09-19T13:37:35;5.55;;;1.77;;
79064;SDS011;68469;51.502;7.462;2023-09-19T13:40:03;6.53;;;2.10;;
79064;SDS011;68469;51.502;7.462;2023-09-19T13:42:30;5.22;;;1.83;;
79064;SDS011;68469;51.502;7.462;2023-09-19T13:44:56;11.52;;;3.35;;
79064;SDS011;68469;51.502;7.462;2023-09-19T13:47:22;5.63;;;2.53;;
79064;SDS011;68469;51.502;7.462;2023-09-19T13:49:49;3.63;;;1.83;;
79064;SDS011;68469;51.502;7.462;2023-09-19T13:52:21;6.05;;;1.80;;
79064;SDS011;68469;51.502;7.462;2023-09-19T13:54:48;8.30;;;1.80;;
79064;SDS011;68469;51.502;7.462;2023-09-19T13:57:15;7.57;;;1.60;;
79064;SDS011;68469;51.502;7.462;2023-09-19T13:59:41;4.28;;;1.40;;
79064;SDS011;68469;51.502;7.462;2023-09-19T14:02:07;6.68;;;2.00;;
79064;SDS011;68469;51.502;7.462;2023-09-19T14:04:33;5.50;;;1.80;;
79064;SDS011;68469;51.502;7.462;2023-09-19T14:07:00;6.82;;;1.45;;
79064;SDS011;68469;51.502;7.462;2023-09-19T14:09:26;5.45;;;2.03;;
79064;SDS011;68469;51.502;7.462;2023-09-19T14:11:52;5.05;;;1.40;;
79064;SDS011;68469;51.502;7.462;2023-09-19T14:14:20;4.00;;;1.27;;
79064;SDS011;68469;51.502;7.462;2023-09-19T14:16:49;6.03;;;1.50;;
79064;SDS011;68469;51.502;7.462;2023-09-19T14:19:14;5.53;;;1.55;;
79064;SDS011;68469;51.502;7.462;2023-09-19T14:21:41;3.88;;;1.67;;
79064;SDS011;68469;51.502;7.462;2023-09-19T14:24:07;5.95;;;1.50;;
79064;SDS011;68469;51.502;7.462;2023-09-19T14:26:35;3.85;;;1.88;;
79064;SDS011;68469;51.502;7.462;2023-09-19T14:29:01;4.95;;;1.83;;
79064;SDS011;68469;51.502;7.462;2023-09-19T14:31:26;3.70;;;1.23;;
79064;SDS011;68469;51.502;7.462;2023-09-19T14:33:55;6.40;;;2.53;;
79064;SDS011;68469;51.502;7.462;2023-09-19T14:36:24;4.80;;;1.50;;
79064;SDS011;68469;51.502;7.462;2023-09-19T14:38:52;6.10;;;1.30;;
79064;SDS011;68469;51.502;7.462;2023-09-19T14:41:22;4.00;;;1.55;;
79064;SDS011;68469;51.502;7.462;2023-09-19T14:43:50;6.78;;;1.75;;
79064;SDS011;68469;51.502;7.462;2023-09-19T14:46:16;5.40;;;1.40;;
79064;SDS011;68469;51.502;7.462;2023-09-19T14:48:44;5.40;;;1.90;;
79064;SDS011;68469;51.502;7.462;2023-09-19T14:51:12;4.82;;;1.65;;
79064;SDS011;68469;51.502;7.462;2023-09-19T14:53:38;4.55;;;1.10;;
79064;SDS011;68469;51.502;7.462;2023-09-19T14:56:08;6.88;;;1.30;;
79064;SDS011;68469;51.502;7.462;2023-09-19T14:58:35;5.53;;;1.42;;
79064;SDS011;68469;51.502;7.462;2023-09-19T15:01:08;7.85;;;1.35;;
79064;SDS011;68469;51.502;7.462;2023-09-19T15:03:35;2.95;;;1.17;;
79064;SDS011;68469;51.502;7.462;2023-09-19T15:06:06;4.25;;;0.90;;
79064;SDS011;68469;51.502;7.462;2023-09-19T15:08:34;4.30;;;0.93;;
79064;SDS011;68469;51.502;7.462;2023-09-19T15:11:01;4.68;;;1.00;;
79064;SDS011;68469;51.502;7.462;2023-09-19T15:13:30;4.03;;;0.95;;
79064;SDS011;68469;51.502;7.462;2023-09-19T15:16:04;2.63;;;0.90;;
79064;SDS011;68469;51.502;7.462;2023-09-19T15:18:33;2.97;;;1.10;;
79064;SDS011;68469;51.502;7.462;2023-09-19T15:21:02;4.13;;;1.27;;
79064;SDS011;68469;51.502;7.462;2023-09-19T15:23:29;2.40;;;0.90;;
79064;SDS011;68469;51.502;7.462;2023-09-19T15:25:59;3.92;;;1.42;;
79064;SDS011;68469;51.502;7.462;2023-09-19T15:28:26;3.08;;;0.90;;
79064;SDS011;68469;51.502;7.462;2023-09-19T15:33:25;4.15;;;1.30;;
79064;SDS011;68469;51.502;7.462;2023-09-19T15:35:52;4.90;;;1.40;;
79064;SDS011;68469;51.502;7.462;2023-09-19T15:38:29;8.90;;;2.05;;
79064;SDS011;68469;51.502;7.462;2023-09-19T15:40:56;4.25;;;1.50;;
79064;SDS011;68469;51.502;7.462;2023-09-19T15:43:22;5.70;;;1.00;;
79064;SDS011;68469;51.502;7.462;2023-09-19T15:45:49;2.17;;;1.00;;
79064;SDS011;68469;51.502;7.462;2023-09-19T15:48:15;4.45;;;1.10;;
79064;SDS011;68469;51.502;7.462;2023-09-19T15:50:41;3.28;;;1.23;;
79064;SDS011;68469;51.502;7.462;2023-09-19T15:53:09;4.10;;;1.25;;
79064;SDS011;68469;51.502;7.462;2023-09-19T15:55:40;4.82;;;1.05;;
79064;SDS011;68469;51.502;7.462;2023-09-19T15:58:07;3.15;;;1.20;;
79064;SDS011;68469;51.502;7.462;2023-09-19T16:00:33;3.45;;;1.17;;
79064;SDS011;68469;51.502;7.462;2023-09-19T16:03:02;4.70;;;1.10;;
79064;SDS011;68469;51.502;7.462;2023-09-19T16:05:28;4.95;;;1.10;;
79064;SDS011;68469;51.502;7.462;2023-09-19T16:08:02;3.30;;;1.08;;